Time;durP1;ratioP1;P1;durP2;ratioP2;P2;SDS_P1;SDS_P2;PMS_P1;PMS_P2;Temp;Humidity;BMP_temperature;BMP_pressure;BME280_temperature;BME280_humidity;BME280_pressure;Samples;Min_cycle;Max_cycle;Signal;HPM_P1;HPM_P2
2023/08/14 00:00:56;;;;;;;2.13;1.80;;;15.00;99.90;;;;;;4944822;28;20508;-70
2023/08/14 00:03:21;;;;;;;3.38;1.70;;;15.00;99.90;;;;;;4926582;28;20366;-71
2023/08/14 00:05:47;;;;;;;5.18;2.20;;;15.00;99.90;;;;;;4944415;28;20046;-71
2023/08/14 00:08:13;;;;;;;5.78;1.77;;;15.00;99.90;;;;;;4943645;28;20031;-71
2023/08/14 00:10:38;;;;;;;6.63;1.38;;;15.00;99.90;;;;;;4928488;29;20047;-70
2023/08/14 00:13:04;;;;;;;5.65;1.20;;;15.00;99.90;;;;;;4927635;29;20075;-70
2023/08/14 00:15:29;;;;;;;4.30;0.95;;;14.90;99.90;;;;;;4945444;28;20478;-70
2023/08/14 00:17:55;;;;;;;2.65;1.13;;;14.90;99.90;;;;;;4944901;28;20048;-70
2023/08/14 00:20:20;;;;;;;2.10;0.95;;;14.90;99.90;;;;;;4959544;28;20517;-70
2023/08/14 00:22:46;;;;;;;3.95;1.23;;;14.90;99.90;;;;;;4942904;28;20047;-70
2023/08/14 00:25:12;;;;;;;4.70;1.40;;;14.80;99.90;;;;;;4927391;29;20047;-70
2023/08/14 00:27:37;;;;;;;4.00;1.40;;;14.80;99.90;;;;;;4946287;28;20118;-71
2023/08/14 00:30:03;;;;;;;4.50;1.23;;;14.80;99.90;;;;;;4930074;28;20047;-70
2023/08/14 00:32:29;;;;;;;4.70;1.45;;;14.80;99.90;;;;;;4928741;29;20086;-71
2023/08/14 00:34:55;;;;;;;2.75;1.90;;;14.80;99.90;;;;;;4927802;29;20486;-70
2023/08/14 00:37:24;;;;;;;3.92;1.40;;;14.80;99.90;;;;;;4947179;28;20398;-71
2023/08/14 00:39:50;;;;;;;2.63;1.63;;;14.80;99.90;;;;;;4932818;28;20055;-71
2023/08/14 00:42:15;;;;;;;2.10;1.58;;;14.80;99.90;;;;;;4928797;29;20040;-71
2023/08/14 00:44:41;;;;;;;2.17;1.35;;;14.70;99.90;;;;;;4933488;29;20509;-70
2023/08/14 00:47:08;;;;;;;2.83;1.73;;;14.70;99.90;;;;;;4920576;29;20031;-70
2023/08/14 00:49:34;;;;;;;3.58;1.60;;;14.70;99.90;;;;;;4929615;29;20062;-70
2023/08/14 00:52:00;;;;;;;3.80;2.42;;;14.60;99.90;;;;;;4946486;28;20035;-70
2023/08/14 00:54:26;;;;;;;8.52;2.40;;;14.70;99.90;;;;;;4932643;29;20083;-71
2023/08/14 00:56:51;;;;;;;1.90;1.70;;;14.70;99.90;;;;;;4933507;29;20050;-71
2023/08/14 00:59:17;;;;;;;5.45;2.45;;;14.70;99.90;;;;;;4948316;29;20040;-70
2023/08/14 01:01:43;;;;;;;7.78;2.50;;;14.70;99.90;;;;;;4948800;28;20130;-71
2023/08/14 01:04:09;;;;;;;4.70;2.55;;;14.70;99.90;;;;;;4946452;28;20047;-71
2023/08/14 01:06:35;;;;;;;5.13;1.92;;;14.70;99.90;;;;;;4948388;28;20047;-70
2023/08/14 01:09:00;;;;;;;4.53;1.55;;;14.70;99.90;;;;;;4959860;28;20062;-70
2023/08/14 01:11:52;;;;;;;9.18;2.08;;;14.70;99.90;;;;;;4930366;28;20080;-70
2023/08/14 01:14:28;;;;;;;2.65;1.27;;;14.60;99.90;;;;;;4947424;28;20073;-70
2023/08/14 01:16:59;;;;;;;3.67;1.70;;;14.60;99.90;;;;;;4949504;28;20048;-70
2023/08/14 01:19:30;;;;;;;2.60;1.02;;;14.60;99.90;;;;;;4961616;28;20046;-71
2023/08/14 01:22:04;;;;;;;3.13;1.02;;;14.60;99.90;;;;;;4948870;28;20078;-70
2023/08/14 01:24:51;;;;;;;1.70;0.70;;;14.60;99.90;;;;;;4931289;29;20050;-71
2023/08/14 01:27:17;;;;;;;3.13;1.15;;;14.60;99.90;;;;;;4948921;28;20122;-70
2023/08/14 01:29:45;;;;;;;2.60;1.88;;;14.50;99.90;;;;;;4932699;29;20510;-70
2023/08/14 01:32:10;;;;;;;5.43;2.60;;;14.40;99.90;;;;;;4947508;28;20085;-70
2023/08/14 01:34:36;;;;;;;5.10;2.78;;;14.50;99.90;;;;;;4947410;28;20039;-70
2023/08/14 01:37:21;;;;;;;3.38;2.88;;;14.50;99.90;;;;;;4963480;28;20046;-70
2023/08/14 01:39:52;;;;;;;3.78;2.30;;;14.40;99.90;;;;;;4949162;28;20047;-70
2023/08/14 01:42:25;;;;;;;2.67;2.17;;;14.50;99.90;;;;;;4932317;29;20043;-70
2023/08/14 01:44:58;;;;;;;2.38;1.45;;;14.50;99.90;;;;;;4948571;28;20039;-70
2023/08/14 01:47:25;;;;;;;1.48;1.20;;;14.50;99.90;;;;;;4947299;28;20039;-70
2023/08/14 01:49:52;;;;;;;4.47;1.42;;;14.50;99.90;;;;;;4951600;28;20043;-70
2023/08/14 01:52:17;;;;;;;5.28;2.00;;;14.40;99.90;;;;;;4928108;29;20069;-70
2023/08/14 01:54:43;;;;;;;4.82;2.28;;;14.40;99.90;;;;;;4947298;28;20046;-70
2023/08/14 01:57:08;;;;;;;0.90;0.80;;;14.40;99.90;;;;;;4947948;28;20035;-70
2023/08/14 01:59:42;;;;;;;2.55;1.00;;;14.30;99.90;;;;;;4931302;29;20133;-70
2023/08/14 02:02:10;;;;;;;3.35;1.45;;;14.40;99.90;;;;;;4931198;29;20097;-70
2023/08/14 02:04:35;;;;;;;4.90;1.67;;;14.30;99.90;;;;;;4929108;29;20478;-70
2023/08/14 02:07:01;;;;;;;2.65;1.75;;;14.20;99.90;;;;;;4963981;28;20047;-70
2023/08/14 02:09:27;;;;;;;18.15;2.88;;;14.20;99.90;;;;;;4961921;28;20043;-70
2023/08/14 02:11:53;;;;;;;16.17;2.90;;;14.20;99.90;;;;;;4946909;28;20050;-70
2023/08/14 02:14:19;;;;;;;232.57;9.65;;;14.20;99.90;;;;;;4946874;28;20039;-70
2023/08/14 02:16:44;;;;;;;3.47;2.10;;;14.10;99.90;;;;;;4958688;28;20453;-70
2023/08/14 02:19:10;;;;;;;3.20;1.55;;;14.10;99.90;;;;;;4927970;28;20049;-70
2023/08/14 02:21:36;;;;;;;1.80;1.67;;;14.10;99.90;;;;;;4946394;28;20035;-70
2023/08/14 02:24:01;;;;;;;2.10;1.90;;;14.10;99.90;;;;;;4947720;28;20098;-70
2023/08/14 02:26:27;;;;;;;31.30;3.25;;;14.10;99.90;;;;;;4945774;28;20043;-70
2023/08/14 02:28:53;;;;;;;11.25;1.08;;;14.10;99.90;;;;;;4929650;29;20047;-70
2023/08/14 02:31:19;;;;;;;4.32;0.50;;;14.00;99.90;;;;;;4949064;28;20552;-70
2023/08/14 02:33:45;;;;;;;33.13;1.98;;;14.00;99.90;;;;;;4947042;28;20039;-70
2023/08/14 02:36:10;;;;;;;10.93;1.20;;;14.00;99.90;;;;;;4947811;28;20522;-70
2023/08/14 02:38:36;;;;;;;11.40;0.98;;;14.00;99.90;;;;;;4928936;29;20043;-70
2023/08/14 02:41:03;;;;;;;3.28;0.90;;;14.00;99.90;;;;;;4917415;29;20494;-70
2023/08/14 02:43:28;;;;;;;1.90;0.95;;;14.00;99.90;;;;;;4947913;28;20035;-70
2023/08/14 02:45:54;;;;;;;7.65;1.77;;;14.00;99.90;;;;;;4949280;28;20046;-70
2023/08/14 02:48:19;;;;;;;13.38;1.48;;;14.00;99.90;;;;;;4946729;28;20166;-70
2023/08/14 02:50:45;;;;;;;8.27;1.85;;;14.00;99.90;;;;;;4946574;28;20051;-70
2023/08/14 02:53:11;;;;;;;3.45;2.75;;;14.00;99.90;;;;;;4959345;28;20051;-70
2023/08/14 02:55:36;;;;;;;2.13;1.98;;;13.90;99.90;;;;;;4950267;28;20573;-70
2023/08/14 02:58:02;;;;;;;2.00;1.80;;;13.90;99.90;;;;;;4946953;28;20034;-70
2023/08/14 03:00:28;;;;;;;1.88;1.75;;;14.00;99.90;;;;;;4946444;29;20051;-71
2023/08/14 03:02:54;;;;;;;4.90;1.40;;;14.00;99.90;;;;;;4931885;29;20031;-70
2023/08/14 03:05:19;;;;;;;5.28;2.80;;;14.00;99.90;;;;;;4942789;28;20031;-70
2023/08/14 03:07:45;;;;;;;5.28;2.47;;;13.90;99.90;;;;;;4917331;28;20416;-70
2023/08/14 03:10:11;;;;;;;2.67;2.42;;;13.90;99.90;;;;;;4945442;28;20050;-70
2023/08/14 03:12:37;;;;;;;3.67;2.50;;;14.00;99.90;;;;;;4943835;28;20044;-70
2023/08/14 03:15:06;;;;;;;2.38;1.25;;;14.00;99.90;;;;;;4947615;28;20133;-70
2023/08/14 03:17:32;;;;;;;3.25;1.13;;;14.00;99.90;;;;;;4930833;29;20075;-70
2023/08/14 03:19:58;;;;;;;2.55;2.05;;;13.90;99.90;;;;;;4961902;28;20130;-70
2023/08/14 03:22:23;;;;;;;3.17;2.03;;;14.00;99.90;;;;;;4948190;28;20039;-70
2023/08/14 03:24:49;;;;;;;1.90;1.73;;;13.90;99.90;;;;;;4947836;28;20064;-70
2023/08/14 03:27:14;;;;;;;7.68;2.63;;;13.90;99.90;;;;;;4950023;28;20047;-70
2023/08/14 03:29:40;;;;;;;8.23;2.88;;;13.80;99.90;;;;;;4926662;28;20043;-70
2023/08/14 03:32:06;;;;;;;6.70;2.90;;;13.80;99.90;;;;;;4946653;28;20091;-70
2023/08/14 03:34:31;;;;;;;3.08;2.75;;;13.80;99.90;;;;;;4947073;28;20035;-70
2023/08/14 03:36:57;;;;;;;2.47;2.28;;;13.80;99.90;;;;;;4929929;28;20168;-70
2023/08/14 03:39:22;;;;;;;4.40;2.42;;;13.80;99.90;;;;;;4929539;29;20047;-70
2023/08/14 03:41:48;;;;;;;164.60;9.10;;;13.80;99.90;;;;;;4949714;28;20122;-70
2023/08/14 03:44:14;;;;;;;88.97;5.55;;;13.80;99.90;;;;;;4947018;28;20090;-70
2023/08/14 03:46:39;;;;;;;35.47;3.25;;;13.80;99.90;;;;;;4944961;28;20039;-70
2023/08/14 03:49:05;;;;;;;7.57;2.30;;;13.80;99.90;;;;;;4945367;28;20409;-70
2023/08/14 03:51:31;;;;;;;106.43;5.97;;;13.80;99.90;;;;;;4933604;28;20183;-69
2023/08/14 03:53:56;;;;;;;92.97;4.60;;;13.80;99.90;;;;;;4942512;28;20039;-70
2023/08/14 03:56:22;;;;;;;93.28;5.00;;;13.70;99.90;;;;;;4933807;29;20039;-70
2023/08/14 03:58:48;;;;;;;4.95;2.08;;;13.70;99.90;;;;;;4932002;28;20027;-70
2023/08/14 04:01:13;;;;;;;2.10;1.90;;;13.80;99.90;;;;;;4948126;28;20034;-70
2023/08/14 04:03:39;;;;;;;3.33;2.17;;;13.70;99.90;;;;;;4962213;28;20070;-70
2023/08/14 04:06:05;;;;;;;3.58;2.20;;;13.70;99.90;;;;;;4925760;28;20046;-70
2023/08/14 04:08:30;;;;;;;12.23;4.88;;;13.80;99.90;;;;;;4944109;28;20051;-70
2023/08/14 04:10:59;;;;;;;9.60;7.57;;;13.70;99.90;;;;;;4931638;28;20047;-70
2023/08/14 04:13:25;;;;;;;8.00;6.47;;;13.80;99.90;;;;;;4928853;29;20050;-70
2023/08/14 04:15:59;;;;;;;6.40;5.57;;;13.80;99.90;;;;;;4942500;28;20079;-70
2023/08/14 04:18:27;;;;;;;7.40;5.68;;;13.90;99.90;;;;;;4945314;28;20032;-70
2023/08/14 04:20:54;;;;;;;7.78;5.03;;;13.90;99.90;;;;;;4945921;28;20062;-70
2023/08/14 04:23:19;;;;;;;5.18;4.57;;;13.90;99.90;;;;;;4945381;28;20027;-70
2023/08/14 04:25:45;;;;;;;7.00;4.53;;;14.00;99.90;;;;;;4945876;28;20041;-70
2023/08/14 04:28:11;;;;;;;13.57;6.35;;;14.10;99.90;;;;;;4925467;29;20047;-70
2023/08/14 04:30:37;;;;;;;6.05;5.07;;;14.00;99.90;;;;;;4946411;28;20047;-70
2023/08/14 04:33:02;;;;;;;4.20;3.80;;;14.00;99.90;;;;;;4945502;28;21169;-70
2023/08/14 04:35:28;;;;;;;9.32;6.93;;;14.10;99.90;;;;;;4930441;28;20808;-70
2023/08/14 04:37:53;;;;;;;8.60;7.60;;;14.10;99.90;;;;;;4949381;28;20497;-70
2023/08/14 04:40:19;;;;;;;10.73;7.88;;;14.20;99.90;;;;;;4946510;28;20122;-70
2023/08/14 04:42:45;;;;;;;11.75;8.82;;;14.30;99.90;;;;;;4947806;28;20050;-70
2023/08/14 04:45:10;;;;;;;12.98;8.98;;;14.40;99.90;;;;;;4929866;28;20538;-70
2023/08/14 04:47:36;;;;;;;10.25;8.25;;;14.50;99.90;;;;;;4934054;28;20038;-70
2023/08/14 04:50:02;;;;;;;12.00;8.50;;;14.60;99.90;;;;;;4945642;28;20042;-70
2023/08/14 04:52:27;;;;;;;14.85;9.48;;;14.60;99.90;;;;;;4934337;28;20039;-70
2023/08/14 04:54:53;;;;;;;12.15;8.57;;;14.70;99.90;;;;;;4944728;28;20039;-71
2023/08/14 04:57:18;;;;;;;9.75;8.35;;;14.80;99.90;;;;;;4943362;28;20048;-70
2023/08/14 04:59:44;;;;;;;11.85;8.05;;;14.90;99.90;;;;;;4942014;28;20050;-70
2023/08/14 05:02:10;;;;;;;12.48;8.60;;;15.00;99.90;;;;;;4941304;28;20044;-70
2023/08/14 05:04:35;;;;;;;9.98;8.35;;;15.20;99.90;;;;;;4926556;28;20062;-70
2023/08/14 05:07:01;;;;;;;16.13;8.25;;;15.30;99.90;;;;;;4930804;28;20466;-70
2023/08/14 05:09:27;;;;;;;9.45;8.30;;;15.40;99.90;;;;;;4943156;28;20050;-71
2023/08/14 05:11:53;;;;;;;8.60;7.75;;;15.50;99.90;;;;;;4947627;28;20039;-70
2023/08/14 05:14:18;;;;;;;13.57;7.90;;;15.60;99.90;;;;;;4942282;28;20027;-70
2023/08/14 05:16:47;;;;;;;12.65;7.65;;;15.60;99.90;;;;;;4947559;28;20151;-71
2023/08/14 05:19:13;;;;;;;10.35;7.15;;;15.80;99.90;;;;;;4926016;29;20047;-71
2023/08/14 05:21:39;;;;;;;10.90;7.10;;;15.90;99.90;;;;;;4946094;28;20076;-71
2023/08/14 05:24:04;;;;;;;7.57;6.70;;;16.30;99.90;;;;;;4940875;28;20160;-71
2023/08/14 05:26:30;;;;;;;9.07;5.35;;;16.70;99.90;;;;;;4930123;29;20048;-70
2023/08/14 05:28:56;;;;;;;11.18;5.35;;;17.60;99.90;;;;;;4945943;28;20038;-71
2023/08/14 05:31:22;;;;;;;10.50;4.90;;;18.50;99.90;;;;;;4963263;28;20074;-71
2023/08/14 05:33:47;;;;;;;11.07;4.07;;;19.50;99.90;;;;;;4951763;28;20043;-71
2023/08/14 05:36:13;;;;;;;7.60;4.68;;;20.10;99.90;;;;;;4949485;28;20397;-71
2023/08/14 05:38:39;;;;;;;11.18;4.13;;;21.10;99.90;;;;;;4926823;28;20074;-71
2023/08/14 05:41:04;;;;;;;6.13;3.22;;;22.10;99.90;;;;;;4931486;29;20055;-71
2023/08/14 05:43:30;;;;;;;7.43;3.45;;;23.00;99.90;;;;;;4947471;28;20043;-71
2023/08/14 05:45:55;;;;;;;7.03;3.30;;;23.70;99.90;;;;;;4944673;28;20039;-71
2023/08/14 05:48:22;;;;;;;6.22;3.60;;;24.40;99.90;;;;;;4946712;29;20039;-71
2023/08/14 05:50:52;;;;;;;4.53;2.78;;;24.90;99.90;;;;;;4932895;29;20091;-71
2023/08/14 05:53:18;;;;;;;5.28;3.15;;;24.60;99.90;;;;;;4942967;28;20050;-72
2023/08/14 05:55:43;;;;;;;5.43;2.92;;;24.10;99.90;;;;;;4943560;28;20051;-71
2023/08/14 05:58:09;;;;;;;7.55;3.88;;;23.40;99.90;;;;;;4941947;28;20043;-71
2023/08/14 06:00:37;;;;;;;10.32;4.32;;;22.60;99.90;;;;;;4926181;28;20047;-71
2023/08/14 06:03:03;;;;;;;5.40;3.45;;;21.90;99.90;;;;;;4956115;28;20062;-71
2023/08/14 06:05:29;;;;;;;5.80;3.90;;;21.40;99.90;;;;;;4928056;29;20043;-71
2023/08/14 06:07:55;;;;;;;7.03;4.25;;;21.00;99.90;;;;;;4945481;28;20047;-71
2023/08/14 06:10:21;;;;;;;5.18;4.05;;;20.70;99.90;;;;;;4943682;29;21588;-72
2023/08/14 06:12:50;;;;;;;8.80;4.40;;;20.20;99.90;;;;;;4948098;28;20058;-71
2023/08/14 06:15:18;;;;;;;7.90;5.13;;;19.90;99.90;;;;;;4927202;29;20038;-72
2023/08/14 06:17:44;;;;;;;7.65;5.20;;;19.80;99.90;;;;;;4940511;28;20050;-71
2023/08/14 06:20:10;;;;;;;9.05;4.60;;;19.60;99.90;;;;;;4945960;28;20031;-72
2023/08/14 06:22:44;;;;;;;11.38;4.72;;;19.50;99.90;;;;;;4947224;28;20526;-71
2023/08/14 06:25:11;;;;;;;7.85;5.88;;;19.40;99.90;;;;;;4944950;28;20051;-71
2023/08/14 06:27:37;;;;;;;7.80;4.63;;;19.30;99.90;;;;;;4925994;28;20490;-71
2023/08/14 06:30:03;;;;;;;7.55;4.72;;;19.20;99.90;;;;;;4960943;28;20050;-71
2023/08/14 06:32:29;;;;;;;21.23;5.53;;;19.10;99.90;;;;;;4942429;28;20062;-72
2023/08/14 06:34:54;;;;;;;7.15;5.13;;;19.00;99.90;;;;;;4943334;28;20502;-72
2023/08/14 06:37:20;;;;;;;10.13;4.80;;;19.00;99.90;;;;;;4945134;29;20572;-71
2023/08/14 06:39:46;;;;;;;8.05;5.22;;;18.90;99.90;;;;;;4943672;28;20032;-72
2023/08/14 06:42:11;;;;;;;9.07;5.03;;;18.80;99.90;;;;;;4957430;28;20659;-71
2023/08/14 06:44:37;;;;;;;8.55;5.05;;;18.70;99.90;;;;;;4929433;28;20440;-71
2023/08/14 06:47:03;;;;;;;11.32;5.45;;;18.70;99.90;;;;;;4944719;28;20044;-71
2023/08/14 06:49:28;;;;;;;12.23;6.20;;;18.70;99.90;;;;;;4927233;29;20043;-71
2023/08/14 06:51:54;;;;;;;10.30;5.72;;;18.60;99.90;;;;;;4928457;28;20098;-71
2023/08/14 06:54:20;;;;;;;11.43;6.50;;;18.60;99.90;;;;;;4943198;28;20863;-71
2023/08/14 06:56:45;;;;;;;7.93;5.47;;;18.50;99.90;;;;;;4943531;28;20122;-71
2023/08/14 06:59:11;;;;;;;11.30;6.20;;;18.50;99.90;;;;;;4930281;29;20439;-71
2023/08/14 07:01:37;;;;;;;8.23;6.28;;;18.50;99.90;;;;;;4928425;29;20043;-71
2023/08/14 07:04:03;;;;;;;9.90;6.35;;;18.50;99.90;;;;;;4930691;29;20521;-71
2023/08/14 07:06:29;;;;;;;6.32;5.57;;;18.60;99.90;;;;;;4959391;28;20031;-71
2023/08/14 07:08:55;;;;;;;18.60;7.22;;;18.70;99.90;;;;;;4924351;28;20479;-71
2023/08/14 07:11:20;;;;;;;9.20;5.97;;;18.90;99.90;;;;;;4946139;28;20114;-71
2023/08/14 07:13:46;;;;;;;8.30;5.50;;;19.10;99.90;;;;;;4928754;28;20061;-71
2023/08/14 07:16:11;;;;;;;8.65;6.13;;;19.20;99.90;;;;;;4944647;28;20066;-72
2023/08/14 07:18:37;;;;;;;8.52;5.93;;;19.30;99.90;;;;;;4943296;28;20043;-71
2023/08/14 07:21:03;;;;;;;8.10;6.53;;;19.30;99.90;;;;;;4946523;28;20035;-71
2023/08/14 07:23:29;;;;;;;7.72;5.47;;;19.50;99.90;;;;;;4926485;29;20375;-72
2023/08/14 07:25:57;;;;;;;6.45;5.60;;;19.50;99.90;;;;;;4949467;28;21808;-71
2023/08/14 07:28:23;;;;;;;9.50;5.75;;;19.80;99.90;;;;;;4946235;29;20046;-71
2023/08/14 07:30:48;;;;;;;5.43;4.63;;;20.00;99.90;;;;;;4943056;28;20039;-72
2023/08/14 07:33:15;;;;;;;7.90;5.00;;;20.40;99.90;;;;;;4943504;28;20042;-71
2023/08/14 07:35:41;;;;;;;6.78;5.30;;;20.50;99.90;;;;;;4927192;29;20071;-72
2023/08/14 07:38:07;;;;;;;6.72;4.47;;;20.70;99.90;;;;;;4941105;28;20055;-71
2023/08/14 07:40:33;;;;;;;6.68;4.70;;;20.80;99.90;;;;;;4943554;28;20044;-71
2023/08/14 07:42:58;;;;;;;9.30;4.10;;;20.90;99.90;;;;;;4960441;28;20039;-72
2023/08/14 07:45:24;;;;;;;12.27;5.18;;;21.00;99.90;;;;;;4943120;28;20040;-71
2023/08/14 07:47:50;;;;;;;6.05;4.38;;;20.90;99.90;;;;;;4926124;28;20043;-72
2023/08/14 07:50:15;;;;;;;7.10;4.13;;;20.90;99.90;;;;;;4946231;28;20040;-72
2023/08/14 07:52:41;;;;;;;7.00;3.78;;;20.90;99.90;;;;;;4943714;28;20591;-72
2023/08/14 07:55:07;;;;;;;7.55;4.32;;;20.90;99.90;;;;;;4945761;28;20041;-71
2023/08/14 07:57:32;;;;;;;8.07;3.58;;;20.90;99.90;;;;;;4946136;28;20616;-72
2023/08/14 07:59:58;;;;;;;7.03;3.55;;;20.90;99.90;;;;;;4946782;29;20055;-72
2023/08/14 08:02:23;;;;;;;5.15;2.65;;;20.90;99.90;;;;;;4949340;28;20490;-72
2023/08/14 08:04:49;;;;;;;5.78;3.25;;;20.90;99.90;;;;;;4934214;28;20039;-72
2023/08/14 08:07:15;;;;;;;8.35;3.50;;;20.90;99.90;;;;;;4945749;28;20336;-72
2023/08/14 08:09:41;;;;;;;8.00;3.58;;;20.90;99.90;;;;;;4927079;29;20600;-71
2023/08/14 08:12:07;;;;;;;4.45;2.70;;;21.00;99.90;;;;;;4946214;28;20061;-72
2023/08/14 08:14:33;;;;;;;4.68;2.88;;;20.90;99.90;;;;;;4959762;28;20043;-72
2023/08/14 08:16:59;;;;;;;7.45;2.67;;;21.10;99.90;;;;;;4958057;28;20057;-72
2023/08/14 08:19:25;;;;;;;6.68;2.67;;;21.20;99.90;;;;;;4945524;28;20039;-71
2023/08/14 08:21:51;;;;;;;3.88;2.70;;;21.50;99.90;;;;;;4930346;28;20086;-72
2023/08/14 08:24:17;;;;;;;6.20;2.53;;;21.60;99.90;;;;;;4925697;29;20035;-72
2023/08/14 08:26:43;;;;;;;6.15;2.60;;;21.70;99.90;;;;;;4943878;28;20028;-72
2023/08/14 08:29:08;;;;;;;5.25;2.80;;;21.70;99.90;;;;;;4943825;28;20052;-72
2023/08/14 08:31:34;;;;;;;6.95;2.90;;;21.70;99.90;;;;;;4946467;28;20090;-72
2023/08/14 08:33:59;;;;;;;4.68;2.20;;;21.70;99.90;;;;;;4945309;28;20043;-71
2023/08/14 08:36:25;;;;;;;6.30;2.78;;;21.80;99.90;;;;;;4944186;28;20043;-72
2023/08/14 08:38:51;;;;;;;3.97;2.00;;;22.10;99.90;;;;;;4943785;28;20039;-72
2023/08/14 08:41:29;;;;;;;8.88;2.42;;;22.30;99.90;;;;;;4944412;28;20126;-72
2023/08/14 08:44:21;;;;;;;5.95;2.30;;;22.30;99.90;;;;;;4945240;28;20065;-72
2023/08/14 08:46:51;;;;;;;6.70;2.45;;;22.30;99.90;;;;;;4943953;28;20047;-72
2023/08/14 08:49:17;;;;;;;7.10;2.55;;;22.50;99.90;;;;;;4946061;28;20047;-72
2023/08/14 08:51:44;;;;;;;8.48;3.00;;;22.90;99.90;;;;;;4931045;29;20057;-72
2023/08/14 08:54:12;;;;;;;5.78;2.25;;;23.10;99.90;;;;;;4948006;28;20048;-72
2023/08/14 08:56:37;;;;;;;8.57;2.65;;;23.20;99.90;;;;;;4942509;28;20127;-72
2023/08/14 08:59:04;;;;;;;5.82;2.08;;;23.10;99.90;;;;;;4944100;28;20122;-72
2023/08/14 09:01:29;;;;;;;5.13;1.92;;;23.20;99.90;;;;;;4943928;28;20047;-72
2023/08/14 09:03:55;;;;;;;8.63;3.00;;;23.10;99.90;;;;;;4930064;29;20048;-72
2023/08/14 09:06:21;;;;;;;6.95;1.65;;;23.20;99.90;;;;;;4962376;28;20134;-72
2023/08/14 09:08:47;;;;;;;3.40;0.95;;;23.30;99.90;;;;;;4947084;28;20126;-72
2023/08/14 09:11:13;;;;;;;4.63;1.48;;;23.40;99.90;;;;;;4945739;28;20042;-72
2023/08/14 09:13:38;;;;;;;5.28;1.00;;;23.50;99.90;;;;;;4930633;29;20405;-72
2023/08/14 09:16:04;;;;;;;3.17;0.85;;;23.60;99.90;;;;;;4932515;28;20516;-72
2023/08/14 09:18:30;;;;;;;6.30;1.23;;;23.80;99.90;;;;;;4946404;28;20540;-72
2023/08/14 09:20:57;;;;;;;6.32;1.90;;;24.00;99.90;;;;;;4949041;28;20082;-72
2023/08/14 09:23:23;;;;;;;4.75;1.90;;;24.40;99.90;;;;;;4947558;28;20046;-72
2023/08/14 09:25:50;;;;;;;5.97;1.63;;;24.60;99.90;;;;;;4946373;28;20031;-72
2023/08/14 09:28:16;;;;;;;5.03;1.27;;;24.70;99.90;;;;;;4946263;28;20082;-72
2023/08/14 09:30:43;;;;;;;6.68;1.40;;;24.70;99.90;;;;;;4944897;28;20457;-72
2023/08/14 09:33:10;;;;;;;6.00;1.85;;;24.80;99.90;;;;;;4948155;28;20046;-72
2023/08/14 09:35:37;;;;;;;6.65;1.50;;;25.00;99.90;;;;;;4931043;29;20055;-73
2023/08/14 09:38:03;;;;;;;3.92;1.30;;;25.20;99.90;;;;;;4962291;28;20043;-73
2023/08/14 09:40:28;;;;;;;5.75;1.40;;;25.40;99.90;;;;;;4961377;28;20078;-72
2023/08/14 09:42:56;;;;;;;9.18;1.48;;;25.40;99.90;;;;;;4962179;28;20467;-73
2023/08/14 09:45:25;;;;;;;8.27;1.70;;;25.40;99.90;;;;;;4947614;28;20047;-73
2023/08/14 09:48:03;;;;;;;3.28;1.23;;;25.60;99.90;;;;;;4946035;28;20075;-73
2023/08/14 09:50:31;;;;;;;5.35;1.48;;;25.20;99.90;;;;;;4948631;28;20039;-73
2023/08/14 09:52:58;;;;;;;5.97;1.48;;;25.00;99.90;;;;;;4945800;28;20044;-73
2023/08/14 09:55:26;;;;;;;6.07;1.98;;;24.80;99.90;;;;;;4944524;28;20117;-73
2023/08/14 09:57:53;;;;;;;3.67;1.35;;;25.10;99.90;;;;;;4944994;28;20044;-72
2023/08/14 10:00:18;;;;;;;3.75;1.20;;;25.30;99.90;;;;;;4930296;29;20047;-73
2023/08/14 10:02:46;;;;;;;5.78;1.15;;;25.30;99.90;;;;;;4930100;29;20051;-73
2023/08/14 10:05:12;;;;;;;5.68;1.73;;;25.60;99.90;;;;;;4932501;29;20071;-73
2023/08/14 10:07:39;;;;;;;4.60;1.52;;;25.70;99.90;;;;;;4948580;28;20050;-73
2023/08/14 10:10:07;;;;;;;5.80;1.20;;;25.80;99.90;;;;;;4947171;28;20039;-73
2023/08/14 10:12:39;;;;;;;3.10;1.20;;;25.90;99.90;;;;;;4960374;28;20161;-73
2023/08/14 10:15:09;;;;;;;8.23;1.42;;;26.10;99.90;;;;;;4946454;28;20051;-73
2023/08/14 10:17:43;;;;;;;3.30;1.17;;;26.40;99.90;;;;;;4946208;29;20327;-73
2023/08/14 10:20:11;;;;;;;6.00;1.63;;;26.60;99.90;;;;;;4963155;28;20513;-73
2023/08/14 10:22:39;;;;;;;7.55;1.58;;;26.60;99.90;;;;;;4962952;28;20091;-73
2023/08/14 10:25:06;;;;;;;6.95;1.30;;;26.80;99.90;;;;;;4930890;28;20052;-73
2023/08/14 10:27:33;;;;;;;5.50;1.45;;;27.10;99.90;;;;;;4958749;28;20038;-73
2023/08/14 10:30:00;;;;;;;4.18;1.15;;;26.90;99.90;;;;;;4945779;28;20043;-73
2023/08/14 10:32:27;;;;;;;2.45;0.93;;;27.00;99.90;;;;;;4946389;28;20064;-73
2023/08/14 10:34:54;;;;;;;2.97;1.23;;;27.00;99.90;;;;;;4960655;28;20046;-73
2023/08/14 10:37:28;;;;;;;5.03;1.10;;;27.20;99.90;;;;;;4945880;29;20054;-73
2023/08/14 10:40:11;;;;;;;5.60;1.13;;;27.30;99.90;;;;;;4946783;28;20075;-73
2023/08/14 10:42:44;;;;;;;2.72;0.82;;;27.20;99.90;;;;;;4950714;28;20059;-73
2023/08/14 10:45:10;;;;;;;2.78;1.10;;;26.90;99.90;;;;;;4935488;28;20042;-73
2023/08/14 10:47:38;;;;;;;3.90;0.85;;;26.50;99.90;;;;;;4944946;28;20394;-73
2023/08/14 10:50:24;;;;;;;5.00;1.30;;;26.10;99.90;;;;;;4962383;28;20047;-73
2023/08/14 10:52:53;;;;;;;6.80;1.95;;;26.10;99.90;;;;;;4944584;29;20047;-73
2023/08/14 10:55:39;;;;;;;4.22;0.98;;;26.00;99.90;;;;;;4943655;28;20066;-73
2023/08/14 10:58:28;;;;;;;3.03;0.90;;;25.80;99.90;;;;;;4946382;28;20412;-73
2023/08/14 11:00:54;;;;;;;2.95;0.90;;;25.60;99.90;;;;;;4959250;28;20055;-73
2023/08/14 11:03:20;;;;;;;4.18;1.00;;;25.50;99.90;;;;;;4943753;28;20043;-73
2023/08/14 11:05:46;;;;;;;3.45;0.60;;;25.70;99.90;;;;;;4923848;29;20110;-73
2023/08/14 11:08:12;;;;;;;2.60;0.90;;;25.90;99.90;;;;;;4952148;28;20049;-73
2023/08/14 11:10:39;;;;;;;4.03;1.58;;;25.90;99.90;;;;;;4960755;28;20047;-73
2023/08/14 11:13:09;;;;;;;3.35;0.65;;;25.80;99.90;;;;;;4927715;29;20530;-73
2023/08/14 11:15:36;;;;;;;3.15;0.60;;;25.90;99.90;;;;;;4958131;28;20035;-73
2023/08/14 11:18:09;;;;;;;3.97;1.10;;;25.80;99.90;;;;;;4928085;28;20063;-73
2023/08/14 11:20:38;;;;;;;4.13;1.10;;;25.90;99.90;;;;;;4961560;28;20048;-73
2023/08/14 11:23:06;;;;;;;3.20;0.90;;;26.20;99.90;;;;;;4943388;28;20505;-73
2023/08/14 11:25:33;;;;;;;3.95;1.15;;;26.50;99.90;;;;;;4943962;28;20073;-73
2023/08/14 11:27:59;;;;;;;2.85;0.75;;;26.70;99.90;;;;;;4928863;28;20066;-73
2023/08/14 11:30:25;;;;;;;2.90;1.20;;;26.70;99.90;;;;;;4943153;28;20532;-73
2023/08/14 11:32:53;;;;;;;3.92;1.35;;;26.60;99.90;;;;;;4945509;28;20118;-73
2023/08/14 11:35:19;;;;;;;4.32;0.98;;;26.70;99.90;;;;;;4925060;29;20043;-73
2023/08/14 11:37:46;;;;;;;2.00;0.68;;;27.00;99.90;;;;;;4943530;28;20043;-73
2023/08/14 11:40:15;;;;;;;2.60;1.00;;;26.90;99.90;;;;;;4946003;28;20118;-73
2023/08/14 11:42:41;;;;;;;7.78;1.00;;;27.00;99.90;;;;;;4926021;28;20039;-73
2023/08/14 11:45:08;;;;;;;2.30;0.70;;;27.00;99.90;;;;;;4942830;28;20051;-73
2023/08/14 11:47:40;;;;;;;4.70;1.05;;;27.20;99.90;;;;;;4942943;28;20122;-73
2023/08/14 11:50:08;;;;;;;4.97;1.08;;;27.10;99.90;;;;;;4956492;28;20490;-73
2023/08/14 11:52:35;;;;;;;4.22;0.82;;;26.90;99.90;;;;;;4944744;28;20498;-73
2023/08/14 11:55:02;;;;;;;7.38;1.88;;;26.70;99.90;;;;;;4943018;28;20042;-73
2023/08/14 11:57:29;;;;;;;3.90;1.00;;;26.50;99.90;;;;;;4928994;29;20054;-73
2023/08/14 11:59:56;;;;;;;4.38;1.00;;;26.30;99.90;;;;;;4959595;28;20490;-73
2023/08/14 12:02:26;;;;;;;4.28;0.85;;;26.40;99.90;;;;;;4959109;28;20048;-73
2023/08/14 12:04:56;;;;;;;8.13;0.80;;;26.50;99.90;;;;;;4924516;29;20043;-73
2023/08/14 12:07:24;;;;;;;3.88;1.17;;;26.50;99.90;;;;;;4917663;28;20039;-72
2023/08/14 12:09:52;;;;;;;4.35;1.40;;;26.50;99.90;;;;;;4960580;28;20051;-72
2023/08/14 12:12:18;;;;;;;3.78;1.40;;;26.40;99.90;;;;;;4925700;29;20130;-73
2023/08/14 12:14:46;;;;;;;4.57;1.20;;;26.30;99.90;;;;;;4960292;28;20091;-73
2023/08/14 12:17:12;;;;;;;6.55;1.00;;;26.40;99.90;;;;;;4944754;28;20122;-73
2023/08/14 12:19:38;;;;;;;5.70;1.42;;;26.50;99.90;;;;;;4945366;28;20066;-73
2023/08/14 12:22:09;;;;;;;3.63;1.00;;;26.70;99.90;;;;;;4933525;28;20039;-73
2023/08/14 12:24:43;;;;;;;3.42;1.17;;;26.90;99.90;;;;;;4945884;28;20125;-72
2023/08/14 12:27:22;;;;;;;2.60;0.75;;;27.10;99.90;;;;;;4938946;28;20065;-73
2023/08/14 12:29:49;;;;;;;5.30;1.10;;;27.20;99.90;;;;;;4945610;28;20101;-73
2023/08/14 12:32:15;;;;;;;4.35;1.13;;;27.30;99.90;;;;;;4927039;29;20050;-73
2023/08/14 12:34:41;;;;;;;7.07;1.33;;;27.30;99.90;;;;;;4960404;28;20035;-73
2023/08/14 12:37:07;;;;;;;3.25;1.02;;;27.30;99.90;;;;;;4944977;28;20039;-73
2023/08/14 12:39:33;;;;;;;2.95;1.15;;;27.20;99.90;;;;;;4943979;28;20525;-73
2023/08/14 12:42:00;;;;;;;5.63;1.45;;;27.20;99.90;;;;;;4950206;28;20130;-73
2023/08/14 12:44:27;;;;;;;4.35;1.38;;;27.30;99.90;;;;;;4947248;28;20069;-73